createdAt,value
2019-04-22T00:01:04.873Z,97605.25
2019-04-22T00:03:49.994Z,97605.45
2019-04-22T00:06:42.915Z,97599.33
2019-04-22T00:09:19.226Z,97606.70
2019-04-22T00:12:02.177Z,97603.66
2019-04-22T00:18:02.976Z,97604.48
2019-04-22T00:21:12.647Z,97598.01
2019-04-22T00:23:53.084Z,97596.19
2019-04-22T00:26:31.194Z,97604.30
2019-04-22T00:29:10.138Z,97600.34
2019-04-22T00:32:00.839Z,97605.51
2019-04-22T00:34:53.667Z,97601.58
2019-04-22T00:37:37.920Z,97594.29
2019-04-22T00:40:14.312Z,97595.19
2019-04-22T00:42:47.709Z,97590.11
2019-04-22T00:45:26.754Z,97587.73
2019-04-22T00:48:00.970Z,97581.52
2019-04-22T00:53:41.759Z,97568.80
2019-04-22T00:56:29.011Z,97575.20
2019-04-22T00:59:04.426Z,97574.69
2019-04-22T01:01:37.002Z,97572.91
2019-04-22T01:04:27.987Z,97573.64
2019-04-22T01:10:09.273Z,97570.59
2019-04-22T01:12:51.221Z,97562.48
2019-04-22T01:18:37.991Z,97556.88
2019-04-22T01:22:12.567Z,97556.02
2019-04-22T01:27:54.763Z,97552.22
2019-04-22T01:31:04.704Z,97553.80
2019-04-22T01:33:42.948Z,97545.91
2019-04-22T01:36:35.242Z,97550.48
2019-04-22T01:39:18.277Z,97545.02
2019-04-22T01:44:33.314Z,97536.66
2019-04-22T01:50:23.954Z,97539.12
2019-04-22T01:53:24.097Z,97538.75
2019-04-22T01:55:55.428Z,97536.55
2019-04-22T01:58:36.182Z,97536.81
2019-04-22T02:01:28.167Z,97529.41
2019-04-22T02:03:54.632Z,97524.49
2019-04-22T02:06:40.761Z,97521.34
2019-04-22T02:11:46.739Z,97523.36
2019-04-22T02:14:19.967Z,97507.40
2019-04-22T02:17:06.479Z,97510.04
2019-04-22T02:19:53.409Z,97505.91
2019-04-22T02:22:19.090Z,97507.41
2019-04-22T02:25:08.553Z,97498.59
2019-04-22T02:27:45.602Z,97501.91
2019-04-22T02:30:42.161Z,97497.20
2019-04-22T02:44:12.255Z,97484.33
2019-04-22T02:47:01.207Z,97484.94
2019-04-22T02:49:24.461Z,97487.70
2019-04-22T02:51:52.428Z,97481.16
2019-04-22T02:55:00.373Z,97480.75
2019-04-22T02:57:35.185Z,97473.45
2019-04-22T03:00:29.353Z,97469.92
2019-04-22T03:03:03.784Z,97473.09
2019-04-22T03:08:06.699Z,97462.39
2019-04-22T03:13:47.166Z,97460.81
2019-04-22T03:16:32.040Z,97453.30
2019-04-22T03:21:51.897Z,97454.17
2019-04-22T03:24:25.822Z,97450.72
2019-04-22T03:27:07.817Z,97444.77
2019-04-22T03:33:16.319Z,97447.74
2019-04-22T03:42:02.502Z,97441.69
2019-04-22T03:44:24.902Z,97434.57
2019-04-22T03:47:01.825Z,97435.54
2019-04-22T03:49:41.141Z,97436.59
2019-04-22T03:54:45.851Z,97434.57
2019-04-22T04:02:39.408Z,97423.67
2019-04-22T04:05:16.592Z,97421.48
2019-04-22T04:13:16.909Z,97408.32
2019-04-22T04:15:46.612Z,97407.92
2019-04-22T04:18:30.932Z,97406.39
2019-04-22T04:21:22.898Z,97403.73
2019-04-22T04:26:30.796Z,97395.45
2019-04-22T04:29:17.389Z,97396.34
2019-04-22T04:31:40.799Z,97398.36
2019-04-22T04:34:28.381Z,97396.92
2019-04-22T04:39:34.867Z,97389.27
2019-04-22T04:42:25.691Z,97388.30
2019-04-22T04:45:11.392Z,97384.22
2019-04-22T04:50:31.267Z,97388.44
2019-04-22T04:55:35.208Z,97380.73
2019-04-22T04:58:19.967Z,97376.94
2019-04-22T05:05:59.323Z,97385.94
2019-04-22T05:08:52.886Z,97382.34
2019-04-22T05:14:17.714Z,97387.30
2019-04-22T05:19:37.003Z,97380.76
2019-04-22T05:22:20.745Z,97375.34
2019-04-22T05:24:58.383Z,97373.58
2019-04-22T05:27:37.797Z,97375.98
2019-04-22T05:32:43.303Z,97367.54
2019-04-22T05:35:20.630Z,97359.81
2019-04-22T05:38:04.549Z,97362.26
2019-04-22T05:43:34.530Z,97360.38
2019-04-22T05:46:22.362Z,97347.05
2019-04-22T05:49:08.199Z,97361.13
2019-04-22T05:51:41.691Z,97351.04
2019-04-22T05:54:16.056Z,97353.47
2019-04-22T05:56:47.681Z,97346.97
2019-04-22T05:59:56.959Z,97350.52
2019-04-22T06:02:41.717Z,97347.39
2019-04-22T06:05:05.109Z,97336.41
2019-04-22T06:08:22.060Z,97338.52
2019-04-22T06:11:22.743Z,97339.44
2019-04-22T06:17:18.337Z,97331.07
2019-04-22T06:20:03.050Z,97337.78
2019-04-22T06:23:12.848Z,97334.67
2019-04-22T06:25:57.406Z,97334.67
2019-04-22T06:28:44.560Z,97332.08
2019-04-22T06:31:21.033Z,97327.05
2019-04-22T06:33:56.464Z,97327.05
2019-04-22T06:36:29.301Z,97325.23
2019-04-22T06:39:10.312Z,97326.91
2019-04-22T06:41:43.563Z,97308.36
2019-04-22T06:44:36.892Z,97320.75
2019-04-22T06:47:15.072Z,97320.75
2019-04-22T06:50:14.782Z,97311.16
2019-04-22T06:52:48.296Z,97311.16
2019-04-22T06:55:22.928Z,97307.77
2019-04-22T06:57:59.865Z,97311.19
2019-04-22T07:03:48.986Z,97302.63
2019-04-22T07:09:21.983Z,97296.22
2019-04-22T07:11:36.714Z,97298.13
2019-04-22T07:14:28.616Z,97280.56
2019-04-22T07:17:00.897Z,97295.66
2019-04-22T07:19:36.050Z,97292.88
2019-04-22T07:22:11.276Z,97287.76
2019-04-22T07:24:55.825Z,97285.69
2019-04-22T07:28:13.780Z,97276.42
2019-04-22T07:30:44.697Z,97275.65
2019-04-22T07:33:27.792Z,97278.10
2019-04-22T07:36:28.454Z,97278.25
2019-04-22T07:38:32.818Z,97272.09
2019-04-22T07:41:12.394Z,97275.36
2019-04-22T07:44:13.127Z,97269.32
2019-04-22T07:46:28.682Z,97266.59
2019-04-22T07:49:01.972Z,97278.16
2019-04-22T07:51:36.792Z,97261.32
2019-04-22T07:54:19.751Z,97268.29
2019-04-22T07:57:06.303Z,97266.30
2019-04-22T07:59:35.120Z,97256.22
2019-04-22T08:02:16.317Z,97258.02
2019-04-22T08:05:00.123Z,97254.73
2019-04-22T08:10:12.013Z,97252.73
2019-04-22T08:12:38.975Z,97234.17
2019-04-22T08:15:14.025Z,97238.37
2019-04-22T08:20:42.757Z,97228.34
2019-04-22T08:23:09.656Z,97229.63
2019-04-22T08:26:07.764Z,97213.16
2019-04-22T08:28:37.868Z,97218.37
2019-04-22T08:31:14.943Z,97214.60
2019-04-22T08:34:08.184Z,97206.41
2019-04-22T08:39:07.961Z,97199.66
2019-04-22T08:47:08.965Z,97202.90
2019-04-22T08:50:26.666Z,97196.14
2019-04-22T08:56:14.495Z,97187.91
2019-04-22T08:58:58.770Z,97188.93
2019-04-22T09:01:32.676Z,97183.95
2019-04-22T09:04:10.407Z,97177.70
2019-04-22T09:09:27.079Z,97175.27
2019-04-22T09:12:07.671Z,97164.39
2019-04-22T09:14:42.199Z,97166.93
2019-04-22T09:17:22.877Z,97158.16
2019-04-22T09:19:54.566Z,97158.15
2019-04-22T09:22:26.306Z,97145.98
2019-04-22T09:25:08.110Z,97153.06
2019-04-22T09:28:05.746Z,97141.28
2019-04-22T09:33:43.087Z,97133.27
2019-04-22T09:36:29.049Z,97128.27
2019-04-22T09:39:15.704Z,97120.44
2019-04-22T09:41:48.332Z,97117.45
2019-04-22T09:44:36.191Z,97113.94
2019-04-22T09:47:13.149Z,97104.29
2019-04-22T09:49:55.424Z,97102.41
2019-04-22T09:52:29.431Z,97104.45
2019-04-22T09:55:12.991Z,97095.71
2019-04-22T09:57:52.461Z,97098.77
2019-04-22T10:09:26.963Z,97081.37
2019-04-22T10:11:58.680Z,97087.78
2019-04-22T10:14:18.752Z,97076.88
2019-04-22T10:16:53.842Z,97069.07
2019-04-22T10:19:30.678Z,97062.80
2019-04-22T10:22:10.498Z,97067.44
2019-04-22T10:24:44.994Z,97070.85
2019-04-22T10:27:23.953Z,97058.66
2019-04-22T10:30:00.290Z,97057.44
2019-04-22T10:32:29.206Z,97045.27
2019-04-22T10:37:30.159Z,97044.13
2019-04-22T10:40:04.224Z,97036.34
2019-04-22T10:42:54.912Z,97037.09
2019-04-22T10:45:25.969Z,97029.09
2019-04-22T10:48:44.386Z,97029.73
2019-04-22T10:54:29.314Z,97012.05
2019-04-22T10:57:08.774Z,97005.33
2019-04-22T10:59:45.258Z,97001.66
2019-04-22T11:02:14.595Z,97001.38
2019-04-22T11:04:44.051Z,96994.44
2019-04-22T11:07:14.901Z,96993.41
2019-04-22T11:12:45.018Z,96985.07
2019-04-22T11:16:13.915Z,96980.52
2019-04-22T11:18:43.485Z,96969.52
2019-04-22T11:21:33.810Z,96973.73
2019-04-22T11:24:10.583Z,96965.80
2019-04-22T11:26:47.057Z,96954.86
2019-04-22T11:29:27.849Z,96956.98
2019-04-22T11:32:04.216Z,96954.38
2019-04-22T11:34:39.923Z,96946.17
2019-04-22T11:37:10.231Z,96943.52
2019-04-22T11:39:48.153Z,96942.10
2019-04-22T11:42:23.869Z,96943.62
2019-04-22T11:48:45.607Z,96933.66
2019-04-22T11:51:22.119Z,96939.67
2019-04-22T11:53:58.814Z,96937.69
2019-04-22T11:56:34.995Z,96931.13
2019-04-22T11:59:04.851Z,96925.92
2019-04-22T12:01:42.510Z,96923.65
2019-04-22T12:04:18.014Z,96910.90
2019-04-22T12:06:54.063Z,96918.88
2019-04-22T12:09:30.022Z,96905.98
2019-04-22T12:11:59.968Z,96910.05
2019-04-22T12:14:50.072Z,96901.62
2019-04-22T12:20:47.484Z,96895.80
2019-04-22T12:23:37.087Z,96892.38
2019-04-22T12:26:27.327Z,96884.88
2019-04-22T12:29:07.166Z,96883.72
2019-04-22T12:31:37.621Z,96875.44
2019-04-22T12:34:26.593Z,96869.28
2019-04-22T12:36:56.308Z,96866.30
2019-04-22T12:39:47.453Z,96870.77
2019-04-22T12:42:27.131Z,96862.69
2019-04-22T12:45:02.526Z,96858.09
2019-04-22T12:47:40.149Z,96857.70
2019-04-22T12:50:38.467Z,96847.08
2019-04-22T12:53:15.914Z,96838.98
2019-04-22T12:55:48.099Z,96841.81
2019-04-22T12:58:25.467Z,96838.13
2019-04-22T13:01:01.219Z,96841.01
2019-04-22T13:03:38.199Z,96826.81
2019-04-22T13:06:17.524Z,96825.52
2019-04-22T13:08:57.028Z,96817.38
2019-04-22T13:11:30.860Z,96827.62
2019-04-22T13:14:16.803Z,96811.61
2019-04-22T13:16:53.607Z,96805.59
2019-04-22T13:19:30.263Z,96805.66
2019-04-22T13:22:07.066Z,96807.27
2019-04-22T13:24:43.843Z,96801.58
2019-04-22T13:27:24.772Z,96801.80
2019-04-22T13:33:12.677Z,96803.05
2019-04-22T13:36:03.742Z,96797.05
2019-04-22T13:38:42.955Z,96797.85
2019-04-22T13:41:28.874Z,96802.50
2019-04-22T13:43:56.087Z,96789.93
2019-04-22T13:46:34.096Z,96796.66
2019-04-22T13:49:40.705Z,96786.91
2019-04-22T13:57:19.760Z,96766.91
2019-04-22T13:59:42.824Z,96766.75
2019-04-22T14:02:34.747Z,96763.48
2019-04-22T14:05:22.488Z,96759.09
2019-04-22T14:07:54.858Z,96749.02
2019-04-22T14:10:42.805Z,96746.67
2019-04-22T14:13:19.630Z,96745.43
2019-04-22T14:15:55.068Z,96747.19
2019-04-22T14:18:25.217Z,96732.23
2019-04-22T14:21:14.907Z,96729.41
2019-04-22T14:23:54.512Z,96729.07
2019-04-22T14:26:25.062Z,96721.02
2019-04-22T14:29:15.251Z,96712.19
2019-04-22T14:32:04.278Z,96705.34
2019-04-22T14:34:28.358Z,96714.50
2019-04-22T14:37:03.621Z,96706.94
2019-04-22T14:39:44.101Z,96702.16
2019-04-22T14:42:39.347Z,96692.69
2019-04-22T14:45:54.416Z,96695.03
2019-04-22T14:48:01.425Z,96695.00
2019-04-22T14:53:56.130Z,96682.26
2019-04-22T14:56:28.738Z,96681.05
2019-04-22T14:58:58.836Z,96680.45
2019-04-22T15:01:49.653Z,96677.98
2019-04-22T15:04:24.869Z,96681.23
2019-04-22T15:06:54.845Z,96678.41
2019-04-22T15:09:44.320Z,96673.22
2019-04-22T15:12:20.609Z,96677.14
2019-04-22T15:15:21.753Z,96666.17
2019-04-22T15:18:10.285Z,96666.88
2019-04-22T15:23:20.266Z,96662.27
2019-04-22T15:25:59.116Z,96653.34
2019-04-22T15:28:39.632Z,96656.81
2019-04-22T15:31:17.373Z,96659.96
2019-04-22T15:33:56.440Z,96650.44
2019-04-22T15:36:32.713Z,96650.72
2019-04-22T15:39:02.969Z,96639.63
2019-04-22T15:41:38.758Z,96643.75
2019-04-22T15:44:15.448Z,96641.88
2019-04-22T15:46:51.330Z,96638.74
2019-04-22T15:49:22.235Z,96633.59
2019-04-22T15:52:12.384Z,96630.00
2019-04-22T15:54:53.789Z,96630.84
2019-04-22T15:57:28.969Z,96622.50
2019-04-22T16:03:29.011Z,96612.56
2019-04-22T16:06:08.305Z,96608.34
2019-04-22T16:08:45.682Z,96615.59
2019-04-22T16:11:22.095Z,96604.85
2019-04-22T16:13:57.557Z,96608.73
2019-04-22T16:16:28.096Z,96605.09
2019-04-22T16:22:11.182Z,96605.05
2019-04-22T16:25:02.415Z,96597.97
2019-04-22T16:27:38.544Z,96587.92
2019-04-22T16:33:39.321Z,96586.58
2019-04-22T16:36:12.994Z,96587.36
2019-04-22T16:38:49.070Z,96581.19
2019-04-22T16:41:37.147Z,96585.69
2019-04-22T16:44:47.557Z,96586.73
2019-04-22T16:47:55.767Z,96588.40
2019-04-22T16:50:25.223Z,96581.02
2019-04-22T16:52:54.494Z,96583.59
2019-04-22T16:55:23.888Z,96576.01
2019-04-22T17:00:34.411Z,96572.34
2019-04-22T17:03:30.749Z,96580.64
2019-04-22T17:06:25.702Z,96572.25
2019-04-22T17:08:55.225Z,96570.92
2019-04-22T17:11:25.571Z,96570.34
2019-04-22T17:14:20.470Z,96571.05
2019-04-22T17:16:52.724Z,96566.22
2019-04-22T17:19:29.088Z,96565.97
2019-04-22T17:22:03.807Z,96565.96
2019-04-22T17:24:33.138Z,96569.40
2019-04-22T17:27:02.463Z,96568.69
2019-04-22T17:29:32.442Z,96577.21
2019-04-22T17:32:23.487Z,96580.27
2019-04-22T17:35:13.444Z,96575.70
2019-04-22T17:37:42.957Z,96582.30
2019-04-22T17:40:52.292Z,96573.86
2019-04-22T17:43:44.142Z,96575.38
2019-04-22T17:46:24.747Z,96578.60
2019-04-22T17:52:30.496Z,96573.23
2019-04-22T17:55:05.015Z,96571.52
2019-04-22T17:57:34.380Z,96573.84
2019-04-22T18:00:06.831Z,96576.00
2019-04-22T18:02:43.003Z,96579.48
2019-04-22T18:05:07.403Z,96580.16
2019-04-22T18:08:07.740Z,96580.60
2019-04-22T18:10:37.583Z,96583.50
2019-04-22T18:13:23.499Z,96580.98
2019-04-22T18:15:48.728Z,96583.92
2019-04-22T18:18:28.208Z,96575.21
2019-04-22T18:20:55.095Z,96574.11
2019-04-22T18:23:25.138Z,96584.00
2019-04-22T18:26:12.599Z,96579.09
2019-04-22T18:28:54.264Z,96578.92
2019-04-22T18:31:21.803Z,96591.40
2019-04-22T18:34:02.068Z,96586.89
2019-04-22T18:36:40.410Z,96582.61
2019-04-22T18:39:22.331Z,96579.41
2019-04-22T18:42:00.574Z,96580.74
2019-04-22T18:44:39.811Z,96578.43
2019-04-22T18:47:14.526Z,96589.48
2019-04-22T18:49:49.385Z,96582.83
2019-04-22T18:52:49.154Z,96584.86
2019-04-22T18:56:07.901Z,96574.41
2019-04-22T18:58:36.686Z,96575.11
2019-04-22T19:00:57.956Z,96574.53
2019-04-22T19:03:46.811Z,96571.31
2019-04-22T19:06:51.890Z,96569.67
2019-04-22T19:09:13.565Z,96569.80
2019-04-22T19:12:06.279Z,96560.72
2019-04-22T19:14:35.627Z,96559.81
2019-04-22T19:17:19.739Z,96562.50
2019-04-22T19:19:49.846Z,96563.98
2019-04-22T19:22:29.831Z,96559.84
2019-04-22T19:24:56.074Z,96562.34
2019-04-22T19:27:35.943Z,96562.47
2019-04-22T19:30:20.165Z,96558.44
2019-04-22T19:33:02.877Z,96565.60
2019-04-22T19:36:14.529Z,96567.80
2019-04-22T19:38:38.830Z,96562.38
2019-04-22T19:41:24.467Z,96565.33
2019-04-22T19:44:05.841Z,96568.58
2019-04-22T19:46:35.397Z,96560.48
2019-04-22T19:49:18.394Z,96560.20
2019-04-22T19:51:57.300Z,96560.55
2019-04-22T19:57:15.650Z,96562.15
2019-04-22T20:06:08.118Z,96550.38
2019-04-22T20:08:59.289Z,96546.19
2019-04-22T20:11:45.981Z,96539.94
2019-04-22T20:14:24.853Z,96543.57
2019-04-22T20:16:54.824Z,96543.89
2019-04-22T20:19:45.363Z,96550.07
2019-04-22T20:22:32.759Z,96544.94
2019-04-22T20:25:01.865Z,96548.75
2019-04-22T20:27:51.034Z,96543.23
2019-04-22T20:31:03.824Z,96537.25
2019-04-22T20:33:44.403Z,96535.20
2019-04-22T20:36:42.486Z,96541.45
2019-04-22T20:38:56.567Z,96537.28
2019-04-22T20:41:31.499Z,96532.75
2019-04-22T20:44:16.476Z,96528.03
2019-04-22T20:46:44.820Z,96524.55
2019-04-22T20:49:30.569Z,96526.72
2019-04-22T20:52:06.380Z,96529.69
2019-04-22T20:54:40.232Z,96524.31
2019-04-22T20:57:38.163Z,96521.84
2019-04-22T20:59:55.586Z,96517.69
2019-04-22T21:02:45.503Z,96513.73
2019-04-22T21:06:00.828Z,96518.38
2019-04-22T21:08:48.753Z,96517.19
2019-04-22T21:11:21.050Z,96513.08
2019-04-22T21:13:55.960Z,96516.75
2019-04-22T21:16:34.611Z,96512.73
2019-04-22T21:22:36.592Z,96515.56
2019-04-22T21:25:01.990Z,96511.22
2019-04-22T21:27:45.508Z,96510.43
2019-04-22T21:30:15.525Z,96504.66
2019-04-22T21:32:53.563Z,96502.52
2019-04-22T21:36:20.593Z,96499.52
2019-04-22T21:38:48.301Z,96511.27
2019-04-22T21:41:28.176Z,96508.28
2019-04-22T21:44:04.150Z,96503.64
2019-04-22T21:46:53.684Z,96498.69
2019-04-22T21:49:27.997Z,96492.16
2019-04-22T21:51:58.423Z,96489.72
2019-04-22T21:54:42.965Z,96472.63
2019-04-22T21:57:57.686Z,96479.59
2019-04-22T22:00:31.310Z,96485.75
2019-04-22T22:02:52.227Z,96470.20
2019-04-22T22:08:35.293Z,96471.25
2019-04-22T22:11:13.656Z,96464.10
2019-04-22T22:13:51.943Z,96461.52
2019-04-22T22:16:29.151Z,96461.69
2019-04-22T22:19:11.232Z,96454.13
2019-04-22T22:21:51.124Z,96452.75
2019-04-22T22:24:27.354Z,96453.55
2019-04-22T22:27:04.553Z,96455.72
2019-04-22T22:29:57.018Z,96453.36
2019-04-22T22:32:24.527Z,96454.20
2019-04-22T22:34:56.858Z,96439.69
2019-04-22T22:37:21.847Z,96437.27
2019-04-22T22:39:58.041Z,96436.33
2019-04-22T22:42:36.383Z,96435.90
2019-04-22T22:45:33.835Z,96434.33
2019-04-22T22:48:41.288Z,96436.12
2019-04-22T22:50:52.154Z,96439.13
2019-04-22T22:53:40.501Z,96432.36
2019-04-22T22:56:16.140Z,96432.97
2019-04-22T22:58:57.317Z,96427.59
2019-04-22T23:01:32.174Z,96429.01
2019-04-22T23:04:12.482Z,96422.69
2019-04-22T23:06:44.434Z,96426.27
2019-04-22T23:09:19.840Z,96419.31
2019-04-22T23:12:06.147Z,96415.94
2019-04-22T23:14:32.726Z,96411.37
2019-04-22T23:19:33.695Z,96405.05
2019-04-22T23:22:20.707Z,96403.28
2019-04-22T23:25:27.387Z,96400.28
2019-04-22T23:28:12.500Z,96401.67
2019-04-22T23:31:07.590Z,96400.09
2019-04-22T23:34:02.892Z,96395.53
2019-04-22T23:36:56.021Z,96394.94
2019-04-22T23:39:52.299Z,96395.53
2019-04-22T23:44:56.264Z,96395.54
2019-04-22T23:56:24.097Z,96376.86
2019-04-22T23:59:04.736Z,96369.73
